createdAt,value
2022-11-08T00:02:21.094Z,97537.84
2022-11-08T00:04:47.695Z,97536.22
2022-11-08T00:07:33.027Z,97542.66
2022-11-08T00:10:17.879Z,97535.56
2022-11-08T00:13:03.202Z,97535.25
2022-11-08T00:15:34.661Z,97538.69
2022-11-08T00:18:01.208Z,97534.66
2022-11-08T00:20:27.712Z,97531.00
2022-11-08T00:22:54.272Z,97531.84
2022-11-08T00:25:20.804Z,97529.75
2022-11-08T00:27:47.317Z,97531.50
2022-11-08T00:30:14.024Z,97526.41
2022-11-08T00:32:40.618Z,97530.34
2022-11-08T00:35:07.702Z,97534.88
2022-11-08T00:37:36.433Z,97532.50
2022-11-08T00:40:03.039Z,97536.88
2022-11-08T00:42:29.620Z,97527.06
2022-11-08T00:44:56.122Z,97530.34
2022-11-08T00:47:22.593Z,97533.41
2022-11-08T00:49:49.097Z,97531.88
2022-11-08T00:52:15.624Z,97530.28
2022-11-08T00:54:42.143Z,97530.28
2022-11-08T00:57:08.682Z,97524.53
2022-11-08T00:59:35.273Z,97521.31
2022-11-08T01:02:04.019Z,97526.84
2022-11-08T01:04:30.587Z,97527.53
2022-11-08T01:06:57.161Z,97523.97
2022-11-08T01:09:25.976Z,97522.84
2022-11-08T01:11:52.498Z,97516.53
2022-11-08T01:14:19.021Z,97516.72
2022-11-08T01:16:45.606Z,97510.50
2022-11-08T01:19:12.212Z,97513.59
2022-11-08T01:21:38.811Z,97509.13
2022-11-08T01:24:05.967Z,97510.84
2022-11-08T01:26:32.530Z,97508.97
2022-11-08T01:28:59.653Z,97510.16
2022-11-08T01:31:29.114Z,97510.28
2022-11-08T01:33:56.704Z,97518.59
2022-11-08T01:36:26.008Z,97508.53
2022-11-08T01:38:53.247Z,97504.91
2022-11-08T01:41:22.477Z,97496.31
2022-11-08T01:43:51.180Z,97491.50
2022-11-08T01:46:34.226Z,97495.56
2022-11-08T01:49:07.932Z,97486.78
2022-11-08T01:51:40.421Z,97490.25
2022-11-08T01:54:12.526Z,97481.19
2022-11-08T01:56:41.018Z,97475.59
2022-11-08T01:59:10.185Z,97470.72
2022-11-08T02:01:37.029Z,97466.81
2022-11-08T02:04:05.821Z,97456.19
2022-11-08T02:06:37.666Z,97448.34
2022-11-08T02:09:07.309Z,97452.31
2022-11-08T02:11:34.480Z,97439.00
2022-11-08T02:14:01.598Z,97441.38
2022-11-08T02:16:28.143Z,97432.91
2022-11-08T02:18:54.696Z,97436.13
2022-11-08T02:21:28.358Z,97440.38
2022-11-08T02:23:56.186Z,97430.13
2022-11-08T02:26:28.200Z,97436.03
2022-11-08T02:28:55.087Z,97434.31
2022-11-08T02:31:21.869Z,97428.19
2022-11-08T02:33:49.419Z,97429.84
2022-11-08T02:36:20.264Z,97433.94
2022-11-08T02:38:51.633Z,97430.53
2022-11-08T02:41:18.209Z,97429.41
2022-11-08T02:43:44.714Z,97424.47
2022-11-08T02:46:11.277Z,97431.09
2022-11-08T02:48:37.815Z,97428.44
2022-11-08T02:51:04.382Z,97432.41
2022-11-08T02:53:31.027Z,97431.50
2022-11-08T02:55:57.537Z,97423.53
2022-11-08T02:58:24.778Z,97426.09
2022-11-08T03:00:53.545Z,97419.50
2022-11-08T03:03:20.154Z,97423.31
2022-11-08T03:05:47.611Z,97416.09
2022-11-08T03:08:14.920Z,97413.78
2022-11-08T03:10:41.737Z,97409.34
2022-11-08T03:13:08.813Z,97410.22
2022-11-08T03:15:35.422Z,97405.63
2022-11-08T03:18:04.553Z,97397.44
2022-11-08T03:20:33.162Z,97407.06
2022-11-08T03:23:04.458Z,97406.09
2022-11-08T03:25:31.106Z,97398.41
2022-11-08T03:28:05.563Z,97400.56
2022-11-08T03:30:32.640Z,97394.69
2022-11-08T03:32:59.463Z,97391.03
2022-11-08T03:35:26.038Z,97385.59
2022-11-08T03:37:57.297Z,97391.28
2022-11-08T03:40:24.875Z,97393.75
2022-11-08T03:42:51.507Z,97404.69
2022-11-08T03:45:18.330Z,97396.69
2022-11-08T03:47:46.561Z,97404.06
2022-11-08T03:50:14.800Z,97389.09
2022-11-08T03:52:50.759Z,97389.63
2022-11-08T03:55:19.021Z,97394.13
2022-11-08T03:57:48.016Z,97391.28
2022-11-08T04:00:17.318Z,97394.63
2022-11-08T04:02:44.139Z,97394.94
2022-11-08T04:05:12.931Z,97395.53
2022-11-08T04:07:41.760Z,97389.00
2022-11-08T04:10:09.521Z,97381.53
2022-11-08T04:13:00.812Z,97389.13
2022-11-08T04:15:29.324Z,97385.44
2022-11-08T04:18:15.082Z,97389.41
2022-11-08T04:21:02.902Z,97372.41
2022-11-08T04:23:31.083Z,97383.53
2022-11-08T04:26:00.229Z,97383.53
2022-11-08T04:28:31.468Z,97385.91
2022-11-08T04:31:00.270Z,97388.47
2022-11-08T04:33:27.338Z,97385.91
2022-11-08T04:35:54.379Z,97394.06
2022-11-08T04:38:21.793Z,97390.53
2022-11-08T04:40:48.471Z,97391.81
2022-11-08T04:43:15.099Z,97392.06
2022-11-08T04:45:41.666Z,97386.66
2022-11-08T04:48:08.735Z,97384.50
2022-11-08T04:50:36.181Z,97381.75
2022-11-08T04:53:02.706Z,97383.56
2022-11-08T04:55:29.215Z,97383.03
2022-11-08T04:57:58.991Z,97384.31
2022-11-08T05:00:26.366Z,97381.00
2022-11-08T05:02:53.087Z,97371.97
2022-11-08T05:05:19.710Z,97374.75
2022-11-08T05:07:46.469Z,97373.28
2022-11-08T05:10:13.057Z,97380.88
2022-11-08T05:12:39.640Z,97371.59
2022-11-08T05:15:09.875Z,97374.63
2022-11-08T05:17:41.253Z,97371.25
2022-11-08T05:20:29.288Z,97361.28
2022-11-08T05:23:19.708Z,97362.63
2022-11-08T05:25:48.671Z,97357.59
2022-11-08T05:28:15.615Z,97360.13
2022-11-08T05:30:45.571Z,97359.72
2022-11-08T05:33:16.904Z,97357.94
2022-11-08T05:35:43.439Z,97354.81
2022-11-08T05:38:12.186Z,97352.69
2022-11-08T05:40:38.727Z,97354.69
2022-11-08T05:43:05.216Z,97353.16
2022-11-08T05:45:31.729Z,97358.19
2022-11-08T05:48:03.621Z,97359.47
2022-11-08T05:50:34.807Z,97366.69
2022-11-08T05:53:01.697Z,97367.34
2022-11-08T05:55:28.340Z,97369.00
2022-11-08T05:57:54.943Z,97367.69
2022-11-08T06:00:24.184Z,97363.53
2022-11-08T06:02:50.706Z,97363.72
2022-11-08T06:05:17.360Z,97364.91
2022-11-08T06:07:43.931Z,97364.78
2022-11-08T06:10:13.318Z,97363.19
2022-11-08T06:12:39.888Z,97364.72
2022-11-08T06:15:07.973Z,97366.53
2022-11-08T06:17:34.904Z,97368.72
2022-11-08T06:20:01.736Z,97369.44
2022-11-08T06:22:31.555Z,97360.22
2022-11-08T06:25:00.291Z,97371.56
2022-11-08T06:27:29.644Z,97369.00
2022-11-08T06:29:56.660Z,97371.56
2022-11-08T06:32:25.660Z,97382.66
2022-11-08T06:34:52.234Z,97378.78
2022-11-08T06:37:21.022Z,97388.19
2022-11-08T06:39:52.271Z,97387.59
2022-11-08T06:42:18.835Z,97386.59
2022-11-08T06:44:45.378Z,97383.88
2022-11-08T06:47:14.760Z,97384.63
2022-11-08T06:49:41.321Z,97384.28
2022-11-08T06:52:08.303Z,97377.78
2022-11-08T06:54:42.322Z,97377.63
2022-11-08T06:57:08.869Z,97374.31
2022-11-08T06:59:35.539Z,97369.06
2022-11-08T07:02:02.268Z,97380.63
2022-11-08T07:04:28.861Z,97394.06
2022-11-08T07:06:55.727Z,97392.16
2022-11-08T07:09:22.274Z,97394.72
2022-11-08T07:11:48.855Z,97394.69
2022-11-08T07:14:15.446Z,97392.53
2022-11-08T07:16:44.280Z,97393.00
2022-11-08T07:19:13.230Z,97398.25
2022-11-08T07:21:39.823Z,97398.91
2022-11-08T07:24:06.697Z,97401.72
2022-11-08T07:26:33.258Z,97394.91
2022-11-08T07:29:02.477Z,97396.72
2022-11-08T07:31:32.016Z,97398.66
2022-11-08T07:33:58.556Z,97396.03
2022-11-08T07:36:25.086Z,97398.91
2022-11-08T07:38:52.191Z,97381.19
2022-11-08T07:41:18.756Z,97382.34
2022-11-08T07:43:49.115Z,97384.53
2022-11-08T07:46:15.921Z,97386.81
2022-11-08T07:48:42.412Z,97388.69
2022-11-08T07:51:09.038Z,97393.34
2022-11-08T07:53:35.557Z,97390.69
2022-11-08T07:56:02.213Z,97388.88
2022-11-08T07:58:30.961Z,97385.44
2022-11-08T08:01:02.415Z,97380.94
2022-11-08T08:03:29.541Z,97386.44
2022-11-08T08:06:00.727Z,97377.03
2022-11-08T08:08:31.093Z,97375.69
2022-11-08T08:11:00.223Z,97368.75
2022-11-08T08:13:27.051Z,97373.50
2022-11-08T08:15:53.642Z,97373.25
2022-11-08T08:18:21.729Z,97366.19
2022-11-08T08:20:48.294Z,97366.09
2022-11-08T08:23:17.535Z,97364.28
2022-11-08T08:25:44.412Z,97360.22
2022-11-08T08:28:11.173Z,97372.72
2022-11-08T08:30:38.226Z,97362.88
2022-11-08T08:33:27.534Z,97363.56
2022-11-08T08:35:55.287Z,97361.56
2022-11-08T08:38:21.945Z,97355.03
2022-11-08T08:40:48.575Z,97359.25
2022-11-08T08:43:15.508Z,97351.13
2022-11-08T08:45:42.244Z,97359.53
2022-11-08T08:48:08.800Z,97361.66
2022-11-08T08:50:35.376Z,97365.00
2022-11-08T08:53:05.757Z,97358.44
2022-11-08T08:55:35.352Z,97353.88
2022-11-08T08:58:01.941Z,97353.41
2022-11-08T09:03:15.308Z,97355.06
2022-11-08T09:05:44.119Z,97351.72
2022-11-08T09:08:11.838Z,97349.31
2022-11-08T09:10:38.841Z,97353.00
2022-11-08T09:13:05.633Z,97340.50
2022-11-08T09:15:32.332Z,97343.94
2022-11-08T09:17:58.927Z,97331.56
2022-11-08T09:20:25.929Z,97334.38
2022-11-08T09:22:52.447Z,97328.78
2022-11-08T09:25:21.348Z,97327.59
2022-11-08T09:27:50.617Z,97327.31
2022-11-08T09:30:17.197Z,97332.44
2022-11-08T09:33:00.341Z,97327.50
2022-11-08T09:35:30.632Z,97333.34
2022-11-08T09:37:58.085Z,97327.31
2022-11-08T09:40:38.888Z,97323.16
2022-11-08T09:43:33.405Z,97331.09
2022-11-08T09:46:00.026Z,97330.03
2022-11-08T09:48:38.875Z,97325.75
2022-11-08T09:51:37.006Z,97330.72
2022-11-08T09:54:17.114Z,97325.59
2022-11-08T09:56:47.297Z,97326.41
2022-11-08T09:59:35.086Z,97315.56
2022-11-08T10:02:01.915Z,97311.06
2022-11-08T10:04:32.073Z,97312.13
2022-11-08T10:07:03.408Z,97317.22
2022-11-08T10:09:38.950Z,97301.03
2022-11-08T10:12:25.240Z,97298.72
2022-11-08T10:15:19.797Z,97299.47
2022-11-08T10:18:12.664Z,97298.66
2022-11-08T10:20:50.894Z,97298.63
2022-11-08T10:23:32.754Z,97287.88
2022-11-08T10:26:05.913Z,97286.53
2022-11-08T10:28:37.447Z,97284.44
2022-11-08T10:31:04.594Z,97293.22
2022-11-08T10:33:37.401Z,97286.13
2022-11-08T10:36:11.518Z,97284.44
2022-11-08T10:38:47.563Z,97285.41
2022-11-08T10:41:31.049Z,97273.31
2022-11-08T10:44:24.738Z,97271.19
2022-11-08T10:46:59.403Z,97272.38
2022-11-08T10:49:37.620Z,97268.53
2022-11-08T10:52:33.240Z,97270.22
2022-11-08T10:55:00.203Z,97262.03
2022-11-08T10:57:29.641Z,97267.84
2022-11-08T10:59:57.669Z,97251.47
2022-11-08T11:02:34.546Z,97248.38
2022-11-08T11:05:16.511Z,97255.09
2022-11-08T11:08:02.141Z,97251.81
2022-11-08T11:10:34.805Z,97251.97
2022-11-08T11:13:10.246Z,97246.63
2022-11-08T11:15:47.484Z,97244.53
2022-11-08T11:18:23.878Z,97245.75
2022-11-08T11:21:09.401Z,97256.44
2022-11-08T11:23:37.814Z,97243.91
2022-11-08T11:26:07.085Z,97236.84
2022-11-08T11:28:36.052Z,97235.59
2022-11-08T11:31:15.266Z,97239.75
2022-11-08T11:33:47.460Z,97230.41
2022-11-08T11:36:18.850Z,97220.44
2022-11-08T11:38:48.463Z,97229.72
2022-11-08T11:41:24.948Z,97216.72
2022-11-08T11:44:23.362Z,97213.13
2022-11-08T11:46:53.641Z,97222.66
2022-11-08T11:49:21.475Z,97221.00
2022-11-08T11:51:48.196Z,97211.59
2022-11-08T11:54:16.569Z,97212.97
2022-11-08T11:57:17.506Z,97217.09
2022-11-08T11:59:53.748Z,97208.97
2022-11-08T12:02:34.618Z,97199.78
2022-11-08T12:05:19.418Z,97202.41
2022-11-08T12:07:54.509Z,97199.66
2022-11-08T12:10:34.965Z,97199.66
2022-11-08T12:13:20.539Z,97209.88
2022-11-08T12:15:51.179Z,97200.63
2022-11-08T12:18:46.092Z,97195.50
2022-11-08T12:21:25.447Z,97199.91
2022-11-08T12:24:08.260Z,97195.75
2022-11-08T12:27:11.900Z,97192.44
2022-11-08T12:29:38.417Z,97192.63
2022-11-08T12:32:24.091Z,97199.22
2022-11-08T12:35:09.192Z,97171.44
2022-11-08T12:37:41.829Z,97168.91
2022-11-08T12:40:26.569Z,97164.22
2022-11-08T12:43:13.167Z,97183.13
2022-11-08T12:46:04.710Z,97181.72
2022-11-08T12:48:31.308Z,97179.25
2022-11-08T12:51:22.194Z,97180.81
2022-11-08T12:53:57.532Z,97175.84
2022-11-08T12:56:39.317Z,97166.97
2022-11-08T12:59:20.805Z,97176.81
2022-11-08T13:01:47.995Z,97173.09
2022-11-08T13:04:25.660Z,97181.81
2022-11-08T13:07:10.943Z,97175.97
2022-11-08T13:09:42.093Z,97174.47
2022-11-08T13:12:33.407Z,97172.69
2022-11-08T13:15:04.139Z,97165.22
2022-11-08T13:17:33.563Z,97165.94
2022-11-08T13:20:05.960Z,97167.88
2022-11-08T13:22:32.616Z,97168.75
2022-11-08T13:25:01.493Z,97174.00
2022-11-08T13:27:37.744Z,97173.31
2022-11-08T13:30:24.900Z,97168.06
2022-11-08T13:33:16.556Z,97168.19
2022-11-08T13:35:56.273Z,97166.94
2022-11-08T13:39:00.045Z,97171.78
2022-11-08T13:41:26.959Z,97161.31
2022-11-08T13:43:56.090Z,97168.19
2022-11-08T13:46:29.689Z,97171.69
2022-11-08T13:49:03.549Z,97164.63
2022-11-08T13:51:30.135Z,97158.56
2022-11-08T13:54:02.698Z,97161.59
2022-11-08T13:56:57.505Z,97159.97
2022-11-08T13:59:32.774Z,97157.47
2022-11-08T14:02:03.862Z,97162.72
2022-11-08T14:04:37.265Z,97162.03
2022-11-08T14:07:25.217Z,97165.63
2022-11-08T14:10:27.503Z,97157.22
2022-11-08T14:13:15.732Z,97160.53
2022-11-08T14:16:01.963Z,97158.72
2022-11-08T14:18:33.046Z,97153.06
2022-11-08T14:21:00.376Z,97157.22
2022-11-08T14:23:29.053Z,97151.56
2022-11-08T14:26:00.763Z,97155.81
2022-11-08T14:28:29.518Z,97161.38
2022-11-08T14:30:57.598Z,97160.53
2022-11-08T14:33:27.544Z,97163.44
2022-11-08T14:35:58.273Z,97162.47
2022-11-08T14:38:27.023Z,97165.25
2022-11-08T14:40:58.009Z,97160.13
2022-11-08T14:43:27.499Z,97171.31
2022-11-08T14:45:54.981Z,97165.38
2022-11-08T14:48:24.526Z,97164.00
2022-11-08T14:51:01.973Z,97164.34
2022-11-08T14:53:31.940Z,97177.41
2022-11-08T14:56:18.368Z,97176.28
2022-11-08T14:58:46.049Z,97171.19
2022-11-08T15:01:16.552Z,97163.44
2022-11-08T15:03:52.447Z,97172.50
2022-11-08T15:06:21.500Z,97167.50
2022-11-08T15:08:56.915Z,97169.44
2022-11-08T15:11:40.082Z,97162.25
2022-11-08T15:14:09.337Z,97176.25
2022-11-08T15:16:49.735Z,97177.19
2022-11-08T15:19:30.003Z,97178.50
2022-11-08T15:22:00.393Z,97171.69
2022-11-08T15:24:38.470Z,97176.34
2022-11-08T15:27:24.353Z,97181.84
2022-11-08T15:29:59.437Z,97179.00
2022-11-08T15:32:26.972Z,97186.56
2022-11-08T15:34:55.895Z,97184.94
2022-11-08T15:37:38.356Z,97184.03
2022-11-08T15:40:27.225Z,97185.41
2022-11-08T15:42:54.399Z,97196.31
2022-11-08T15:45:25.994Z,97198.69
2022-11-08T15:47:59.456Z,97191.41
2022-11-08T15:50:30.012Z,97197.38
2022-11-08T15:52:59.184Z,97192.22
2022-11-08T15:55:30.078Z,97200.41
2022-11-08T15:58:00.836Z,97199.22
2022-11-08T16:00:32.688Z,97205.28
2022-11-08T16:03:02.182Z,97198.53
2022-11-08T16:05:36.443Z,97197.22
2022-11-08T16:08:02.994Z,97201.47
2022-11-08T16:10:38.028Z,97201.53
2022-11-08T16:13:05.895Z,97197.91
2022-11-08T16:15:34.994Z,97206.16
2022-11-08T16:18:02.715Z,97201.13
2022-11-08T16:20:35.800Z,97194.31
2022-11-08T16:23:05.662Z,97202.69
2022-11-08T16:25:45.333Z,97196.72
2022-11-08T16:28:22.066Z,97203.75
2022-11-08T16:30:51.347Z,97198.50
2022-11-08T16:33:20.786Z,97200.66
2022-11-08T16:35:47.777Z,97197.25
2022-11-08T16:38:14.635Z,97196.72
2022-11-08T16:40:41.408Z,97201.28
2022-11-08T16:43:11.898Z,97199.28
2022-11-08T16:46:03.771Z,97199.25
2022-11-08T16:48:27.215Z,97202.41
2022-11-08T16:51:04.666Z,97192.63
2022-11-08T16:53:32.313Z,97198.47
2022-11-08T16:56:01.496Z,97199.63
2022-11-08T16:58:28.185Z,97203.56
2022-11-08T17:00:56.391Z,97202.59
2022-11-08T17:03:25.842Z,97207.09
2022-11-08T17:05:54.066Z,97205.22
2022-11-08T17:08:21.476Z,97205.63
2022-11-08T17:10:48.255Z,97210.56
2022-11-08T17:13:19.998Z,97206.38
2022-11-08T17:15:47.758Z,97210.84
2022-11-08T17:18:17.814Z,97205.53
2022-11-08T17:20:47.109Z,97204.03
2022-11-08T17:23:14.261Z,97203.94
2022-11-08T17:25:42.997Z,97200.94
2022-11-08T17:28:11.475Z,97210.41
2022-11-08T17:30:43.992Z,97211.53
2022-11-08T17:33:12.863Z,97217.28
2022-11-08T17:35:42.812Z,97214.28
2022-11-08T17:38:11.082Z,97221.91
2022-11-08T17:40:37.690Z,97218.91
2022-11-08T17:43:04.360Z,97224.84
2022-11-08T17:45:33.046Z,97220.31
2022-11-08T17:48:01.915Z,97228.34
2022-11-08T17:50:28.567Z,97228.16
2022-11-08T17:52:55.231Z,97225.78
2022-11-08T17:55:22.016Z,97223.00
2022-11-08T17:57:51.147Z,97219.13
2022-11-08T18:00:17.941Z,97223.34
2022-11-08T18:02:45.767Z,97224.00
2022-11-08T18:05:12.413Z,97222.81
2022-11-08T18:07:40.037Z,97218.84
2022-11-08T18:10:07.155Z,97220.66
2022-11-08T18:12:33.882Z,97227.19
2022-11-08T18:15:00.433Z,97222.41
2022-11-08T18:17:27.361Z,97226.47
2022-11-08T18:19:54.043Z,97225.63
2022-11-08T18:22:20.679Z,97226.75
2022-11-08T18:24:50.308Z,97230.41
2022-11-08T18:27:17.029Z,97223.00
2022-11-08T18:29:43.630Z,97223.69
2022-11-08T18:32:10.281Z,97231.56
2022-11-08T18:34:36.935Z,97230.59
2022-11-08T18:37:03.580Z,97234.22
2022-11-08T18:39:32.693Z,97228.88
2022-11-08T18:41:59.256Z,97227.94
2022-11-08T18:44:25.820Z,97231.28
2022-11-08T18:46:52.392Z,97238.22
2022-11-08T18:49:19.247Z,97237.66
2022-11-08T18:51:52.652Z,97241.28
2022-11-08T18:54:19.615Z,97239.31
2022-11-08T18:56:46.179Z,97241.81
2022-11-08T18:59:12.657Z,97241.84
2022-11-08T19:01:41.417Z,97238.88
2022-11-08T19:04:08.384Z,97243.25
2022-11-08T19:06:35.233Z,97239.97
2022-11-08T19:09:04.395Z,97246.75
2022-11-08T19:11:30.954Z,97243.84
2022-11-08T19:13:58.642Z,97243.50
2022-11-08T19:16:25.720Z,97241.22
2022-11-08T19:18:52.293Z,97245.38
2022-11-08T19:21:24.863Z,97245.38
2022-11-08T19:23:52.404Z,97248.41
2022-11-08T19:26:23.577Z,97251.63
2022-11-08T19:28:50.772Z,97250.03
2022-11-08T19:31:19.944Z,97244.13
2022-11-08T19:33:51.454Z,97246.22
2022-11-08T19:36:22.904Z,97246.09
2022-11-08T19:38:50.122Z,97247.94
2022-11-08T19:41:23.767Z,97254.00
2022-11-08T19:43:54.063Z,97249.69
2022-11-08T19:46:24.463Z,97255.81
2022-11-08T19:48:51.979Z,97258.56
2022-11-08T19:51:23.367Z,97256.69
2022-11-08T19:53:50.540Z,97257.63
2022-11-08T19:56:19.370Z,97253.88
2022-11-08T19:58:48.961Z,97249.53
2022-11-08T20:01:24.652Z,97257.97
2022-11-08T20:03:51.724Z,97263.69
2022-11-08T20:06:21.658Z,97259.34
2022-11-08T20:08:51.116Z,97257.13
2022-11-08T20:11:23.320Z,97259.31
2022-11-08T20:13:51.144Z,97257.28
2022-11-08T20:16:26.758Z,97259.44
2022-11-08T20:18:55.934Z,97263.03
2022-11-08T20:21:24.765Z,97259.56
2022-11-08T20:23:51.306Z,97262.41
2022-11-08T20:26:22.704Z,97265.22
2022-11-08T20:28:56.420Z,97259.38
2022-11-08T20:31:24.082Z,97263.22
2022-11-08T20:33:54.851Z,97260.53
2022-11-08T20:36:23.817Z,97270.38
2022-11-08T20:38:54.310Z,97263.69
2022-11-08T20:41:20.985Z,97260.53
2022-11-08T20:43:47.755Z,97258.00
2022-11-08T20:46:16.726Z,97255.78
2022-11-08T20:48:44.279Z,97259.13
2022-11-08T20:51:16.300Z,97261.88
2022-11-08T20:53:43.701Z,97252.34
2022-11-08T20:56:23.907Z,97259.69
2022-11-08T20:58:51.765Z,97248.84
2022-11-08T21:01:21.640Z,97253.00
2022-11-08T21:03:52.412Z,97251.75
2022-11-08T21:06:22.182Z,97247.31
2022-11-08T21:09:25.534Z,97253.56
2022-11-08T21:11:35.956Z,97258.19
2022-11-08T21:14:04.121Z,97252.53
2022-11-08T21:16:38.146Z,97248.03
2022-11-08T21:19:13.855Z,97241.66
2022-11-08T21:21:40.323Z,97243.16
2022-11-08T21:24:07.251Z,97244.56
2022-11-08T21:26:39.002Z,97251.84
2022-11-08T21:29:06.343Z,97249.16
2022-11-08T21:31:33.785Z,97249.66
2022-11-08T21:34:00.331Z,97241.00
2022-11-08T21:36:28.988Z,97250.38
2022-11-08T21:38:55.417Z,97247.94
2022-11-08T21:41:21.931Z,97249.63
2022-11-08T21:43:50.946Z,97252.28
2022-11-08T21:46:20.717Z,97254.28
2022-11-08T21:48:48.291Z,97247.31
2022-11-08T21:51:16.140Z,97249.28
2022-11-08T21:53:52.462Z,97250.16
2022-11-08T21:56:24.008Z,97244.13
2022-11-08T21:58:50.527Z,97244.59
2022-11-08T22:01:29.938Z,97244.47
2022-11-08T22:03:57.463Z,97237.56
2022-11-08T22:06:24.111Z,97241.03
2022-11-08T22:08:50.634Z,97245.06
2022-11-08T22:11:19.599Z,97247.16
2022-11-08T22:13:46.514Z,97245.44
2022-11-08T22:16:15.241Z,97237.75
2022-11-08T22:21:42.866Z,97221.88
2022-11-08T22:24:14.804Z,97220.78
2022-11-08T22:26:44.062Z,97233.28
2022-11-08T22:29:10.725Z,97231.31
2022-11-08T22:31:37.594Z,97231.28
2022-11-08T22:34:04.899Z,97232.53
2022-11-08T22:36:33.696Z,97231.28
2022-11-08T22:39:00.192Z,97230.81
2022-11-08T22:41:27.173Z,97226.22
2022-11-08T22:43:53.901Z,97227.31
2022-11-08T22:46:23.339Z,97223.31
2022-11-08T22:48:50.137Z,97232.66
2022-11-08T22:51:16.615Z,97224.88
2022-11-08T22:53:43.184Z,97227.50
2022-11-08T22:56:11.683Z,97237.16
2022-11-08T22:58:42.211Z,97219.31
2022-11-08T23:01:12.917Z,97223.66
2022-11-08T23:03:42.600Z,97220.31
2022-11-08T23:06:14.028Z,97224.66
2022-11-08T23:08:43.365Z,97221.84
2022-11-08T23:11:28.442Z,97231.31
2022-11-08T23:14:13.210Z,97225.41
2022-11-08T23:16:43.273Z,97234.34
2022-11-08T23:19:31.391Z,97230.72
2022-11-08T23:22:16.727Z,97236.19
2022-11-08T23:24:43.940Z,97235.78
2022-11-08T23:27:31.929Z,97238.03
2022-11-08T23:30:17.115Z,97235.75
2022-11-08T23:32:45.628Z,97236.81
2022-11-08T23:35:12.948Z,97229.19
2022-11-08T23:37:39.767Z,97236.31
2022-11-08T23:40:26.813Z,97235.97
2022-11-08T23:43:41.171Z,97235.41
2022-11-08T23:46:10.193Z,97240.72
2022-11-08T23:48:37.661Z,97238.72
2022-11-08T23:51:07.513Z,97230.75
2022-11-08T23:53:36.891Z,97231.75
2022-11-08T23:56:06.900Z,97236.69
2022-11-08T23:58:33.631Z,97225.75
